createdAt,value
2018-12-17T00:01:23.513Z,41.83
2018-12-17T00:03:52.922Z,38.00
2018-12-17T00:06:23.401Z,38.30
2018-12-17T00:08:53.627Z,33.43
2018-12-17T00:11:23.899Z,37.63
2018-12-17T00:13:54.001Z,37.70
2018-12-17T00:16:24.270Z,38.40
2018-12-17T00:18:54.458Z,48.50
2018-12-17T00:21:24.609Z,48.60
2018-12-17T00:23:55.113Z,45.53
2018-12-17T00:26:25.222Z,41.50
2018-12-17T00:28:56.841Z,42.50
2018-12-17T00:31:27.553Z,39.93
2018-12-17T00:33:57.802Z,38.17
2018-12-17T00:36:27.906Z,36.57
2018-12-17T00:38:58.544Z,39.67
2018-12-17T00:41:28.748Z,37.17
2018-12-17T00:43:58.853Z,35.80
2018-12-17T00:46:29.129Z,39.97
2018-12-17T00:48:59.268Z,44.27
2018-12-17T00:51:29.768Z,42.50
2018-12-17T00:54:00.037Z,42.10
2018-12-17T00:56:30.346Z,44.13
2018-12-17T00:59:00.452Z,41.60
2018-12-17T01:01:31.109Z,43.97
2018-12-17T01:04:01.417Z,42.17
2018-12-17T01:06:32.239Z,51.40
2018-12-17T01:09:03.198Z,47.70
2018-12-17T01:11:32.935Z,39.10
2018-12-17T01:14:03.691Z,37.17
2018-12-17T01:16:33.839Z,37.63
2018-12-17T01:19:04.144Z,57.57
2018-12-17T01:21:35.476Z,58.50
2018-12-17T01:24:05.752Z,51.30
2018-12-17T01:26:36.113Z,55.40
2018-12-17T01:29:06.124Z,50.83
2018-12-17T01:31:36.435Z,45.33
2018-12-17T01:34:06.928Z,52.80
2018-12-17T01:36:37.024Z,50.93
2018-12-17T01:39:07.153Z,51.00
2018-12-17T01:41:36.604Z,50.60
2018-12-17T01:44:06.894Z,50.27
2018-12-17T01:46:37.030Z,47.30
2018-12-17T01:49:06.542Z,48.10
2018-12-17T01:51:35.386Z,52.10
2018-12-17T01:54:04.385Z,50.60
2018-12-17T01:56:34.248Z,46.50
2018-12-17T01:59:03.092Z,45.13
2018-12-17T02:01:32.901Z,48.43
2018-12-17T02:04:03.193Z,42.50
2018-12-17T02:06:32.209Z,37.77
2018-12-17T02:09:02.790Z,36.30
2018-12-17T02:11:32.050Z,40.90
2018-12-17T02:14:02.262Z,38.57
2018-12-17T02:16:32.233Z,38.33
2018-12-17T02:19:02.814Z,38.10
2018-12-17T02:21:33.102Z,34.47
2018-12-17T02:24:03.584Z,37.93
2018-12-17T02:26:38.062Z,36.23
2018-12-17T02:29:08.495Z,39.27
2018-12-17T02:31:38.753Z,38.57
2018-12-17T02:34:08.428Z,38.40
2018-12-17T02:36:38.316Z,46.87
2018-12-17T02:39:08.820Z,36.27
2018-12-17T02:41:38.392Z,36.07
2018-12-17T02:44:07.656Z,37.83
2018-12-17T02:46:37.210Z,37.87
2018-12-17T02:49:07.488Z,38.10
2018-12-17T02:51:37.709Z,44.13
2018-12-17T02:54:07.384Z,39.53
2018-12-17T02:56:36.748Z,42.53
2018-12-17T02:59:05.871Z,47.43
2018-12-17T03:01:34.621Z,51.47
2018-12-17T03:04:03.681Z,41.57
2018-12-17T03:06:32.737Z,48.03
2018-12-17T03:09:01.319Z,48.80
2018-12-17T03:11:30.226Z,44.73
2018-12-17T03:13:59.088Z,44.87
2018-12-17T03:16:28.029Z,48.57
2018-12-17T03:18:58.096Z,53.17
2018-12-17T03:21:27.114Z,51.67
2018-12-17T03:23:55.717Z,51.57
2018-12-17T03:26:24.041Z,48.13
2018-12-17T03:28:52.362Z,44.33
2018-12-17T03:31:20.840Z,44.83
2018-12-17T03:33:49.076Z,45.53
2018-12-17T03:36:17.748Z,40.57
2018-12-17T03:38:45.972Z,38.37
2018-12-17T03:41:14.332Z,40.23
2018-12-17T03:43:43.553Z,40.50
2018-12-17T03:46:11.967Z,40.37
2018-12-17T03:48:40.164Z,44.47
2018-12-17T03:51:09.106Z,41.43
2018-12-17T03:53:37.593Z,45.70
2018-12-17T03:56:05.925Z,47.53
2018-12-17T03:58:34.681Z,45.43
2018-12-17T04:01:03.123Z,48.13
2018-12-17T04:03:31.576Z,48.87
2018-12-17T04:05:59.909Z,54.67
2018-12-17T04:08:28.911Z,49.57
2018-12-17T04:10:58.556Z,59.20
2018-12-17T04:13:27.019Z,46.93
2018-12-17T04:15:56.000Z,50.70
2018-12-17T04:18:25.017Z,45.20
2018-12-17T04:20:53.300Z,45.50
2018-12-17T04:23:21.687Z,42.23
2018-12-17T04:25:50.663Z,44.10
2018-12-17T04:28:19.496Z,39.33
2018-12-17T04:30:48.209Z,41.10
2018-12-17T04:33:16.778Z,45.10
2018-12-17T04:35:45.039Z,35.27
2018-12-17T04:38:13.572Z,41.30
2018-12-17T04:40:42.012Z,45.43
2018-12-17T04:43:10.547Z,39.37
2018-12-17T04:45:39.460Z,37.93
2018-12-17T04:48:07.786Z,40.70
2018-12-17T04:50:36.063Z,41.40
2018-12-17T04:53:04.489Z,41.23
2018-12-17T04:55:33.038Z,40.20
2018-12-17T04:58:01.300Z,46.57
2018-12-17T05:00:29.525Z,41.50
2018-12-17T05:02:58.106Z,49.20
2018-12-17T05:05:27.078Z,47.97
2018-12-17T05:07:56.657Z,47.80
2018-12-17T05:10:25.902Z,51.53
2018-12-17T05:12:55.751Z,43.03
2018-12-17T05:15:24.417Z,49.40
2018-12-17T05:17:53.440Z,46.30
2018-12-17T05:20:22.260Z,38.80
2018-12-17T05:22:51.111Z,48.47
2018-12-17T05:25:19.491Z,48.73
2018-12-17T05:27:48.299Z,43.43
2018-12-17T05:30:17.672Z,38.27
2018-12-17T05:32:45.984Z,42.97
2018-12-17T05:35:14.275Z,49.27
2018-12-17T05:37:42.512Z,47.87
2018-12-17T05:40:10.748Z,37.60
2018-12-17T05:42:39.005Z,34.70
2018-12-17T05:45:07.469Z,35.97
2018-12-17T05:47:35.827Z,42.73
2018-12-17T05:50:05.824Z,42.87
2018-12-17T05:52:34.206Z,44.77
2018-12-17T05:55:02.429Z,47.60
2018-12-17T05:57:30.678Z,40.80
2018-12-17T05:59:59.374Z,44.87
2018-12-17T06:02:27.684Z,42.83
2018-12-17T06:04:55.999Z,68.50
2018-12-17T06:07:24.478Z,45.03
2018-12-17T06:09:53.408Z,47.50
2018-12-17T06:12:22.827Z,37.87
2018-12-17T06:14:51.712Z,36.00
2018-12-17T06:17:20.204Z,40.10
2018-12-17T06:19:48.542Z,39.30
2018-12-17T06:22:18.147Z,36.70
2018-12-17T06:24:47.139Z,40.80
2018-12-17T06:27:15.590Z,40.97
2018-12-17T06:29:44.206Z,38.63
2018-12-17T06:32:12.656Z,36.57
2018-12-17T06:34:42.094Z,43.23
2018-12-17T06:37:10.751Z,40.70
2018-12-17T06:39:39.116Z,37.77
2018-12-17T06:42:07.492Z,39.03
2018-12-17T06:44:36.224Z,43.00
2018-12-17T06:47:04.485Z,42.27
2018-12-17T06:49:32.673Z,39.60
2018-12-17T06:52:01.013Z,41.83
2018-12-17T06:54:29.493Z,40.67
2018-12-17T06:56:57.885Z,37.07
2018-12-17T06:59:26.116Z,35.73
2018-12-17T07:01:55.321Z,35.77
2018-12-17T07:04:23.781Z,31.03
2018-12-17T07:06:52.391Z,32.33
2018-12-17T07:09:21.182Z,29.63
2018-12-17T07:11:49.555Z,31.33
2018-12-17T07:14:19.707Z,30.63
2018-12-17T07:16:48.105Z,25.63
2018-12-17T07:19:16.443Z,26.03
2018-12-17T07:21:44.672Z,25.57
2018-12-17T07:24:12.959Z,29.60
2018-12-17T07:26:41.232Z,25.30
2018-12-17T07:29:09.548Z,29.53
2018-12-17T07:31:38.084Z,52.20
2018-12-17T07:34:06.354Z,27.83
2018-12-17T07:36:34.706Z,27.50
2018-12-17T07:39:05.102Z,26.50
2018-12-17T07:41:33.581Z,32.40
2018-12-17T07:44:02.041Z,25.07
2018-12-17T07:46:30.465Z,28.57
2018-12-17T07:48:58.694Z,29.10
2018-12-17T07:51:27.153Z,26.20
2018-12-17T07:53:55.616Z,27.63
2018-12-17T07:56:23.886Z,23.73
2018-12-17T07:58:52.090Z,25.87
2018-12-17T08:01:20.612Z,26.13
2018-12-17T08:03:49.043Z,22.00
2018-12-17T08:06:17.519Z,27.50
2018-12-17T08:08:45.751Z,25.37
2018-12-17T08:11:14.213Z,24.23
2018-12-17T08:13:43.107Z,26.87
2018-12-17T08:16:11.323Z,26.00
2018-12-17T08:18:39.573Z,28.00
2018-12-17T08:21:08.635Z,23.30
2018-12-17T08:23:36.972Z,16.97
2018-12-17T08:26:05.553Z,24.87
2018-12-17T08:28:33.812Z,20.30
2018-12-17T08:31:02.057Z,27.00
2018-12-17T08:33:30.825Z,21.33
2018-12-17T08:35:59.117Z,26.27
2018-12-17T08:38:27.297Z,27.20
2018-12-17T08:40:56.032Z,24.03
2018-12-17T08:43:24.424Z,21.23
2018-12-17T08:45:52.865Z,18.13
2018-12-17T08:48:21.203Z,15.83
2018-12-17T08:50:49.499Z,16.03
2018-12-17T08:53:18.326Z,16.57
2018-12-17T08:55:46.803Z,16.63
2018-12-17T08:58:16.069Z,11.40
2018-12-17T09:00:44.458Z,13.03
2018-12-17T09:03:12.899Z,11.67
2018-12-17T09:05:41.740Z,11.60
2018-12-17T09:08:10.233Z,12.63
2018-12-17T09:10:40.619Z,12.03
2018-12-17T09:13:09.490Z,11.80
2018-12-17T09:15:37.982Z,10.87
2018-12-17T09:18:07.285Z,12.00
2018-12-17T09:20:36.117Z,12.97
2018-12-17T09:23:04.926Z,12.13
2018-12-17T09:25:33.232Z,15.40
2018-12-17T09:28:02.487Z,11.37
2018-12-17T09:30:30.717Z,16.70
2018-12-17T09:32:59.210Z,14.67
2018-12-17T09:35:27.962Z,13.70
2018-12-17T09:37:56.493Z,13.30
2018-12-17T09:40:24.793Z,14.10
2018-12-17T09:42:53.235Z,11.00
2018-12-17T09:45:21.715Z,15.50
2018-12-17T09:47:50.091Z,13.53
2018-12-17T09:50:18.348Z,16.13
2018-12-17T09:52:46.701Z,14.70
2018-12-17T09:55:15.896Z,13.50
2018-12-17T09:57:44.183Z,12.67
2018-12-17T10:00:13.495Z,13.97
2018-12-17T10:02:41.691Z,13.17
2018-12-17T10:05:10.080Z,14.10
2018-12-17T10:07:38.832Z,12.83
2018-12-17T10:10:08.137Z,11.80
2018-12-17T10:12:36.685Z,11.93
2018-12-17T10:15:06.356Z,14.17
2018-12-17T10:17:34.928Z,12.43
2018-12-17T10:20:03.570Z,12.43
2018-12-17T10:22:31.773Z,12.97
2018-12-17T10:25:00.285Z,14.80
2018-12-17T10:27:28.502Z,15.97
2018-12-17T10:29:57.905Z,13.87
2018-12-17T10:32:26.261Z,14.90
2018-12-17T10:34:54.570Z,16.47
2018-12-17T10:37:22.783Z,14.67
2018-12-17T10:39:51.299Z,15.90
2018-12-17T10:42:19.503Z,17.10
2018-12-17T10:44:48.005Z,16.60
2018-12-17T10:47:16.345Z,18.27
2018-12-17T10:49:44.586Z,13.60
2018-12-17T10:52:12.882Z,15.13
2018-12-17T10:54:42.061Z,17.60
2018-12-17T10:57:10.935Z,13.40
2018-12-17T10:59:39.417Z,14.53
2018-12-17T11:02:12.128Z,14.43
2018-12-17T11:04:48.946Z,13.50
2018-12-17T11:07:18.072Z,15.87
2018-12-17T11:09:46.387Z,15.37
2018-12-17T11:12:14.876Z,15.07
2018-12-17T11:14:43.436Z,12.87
2018-12-17T11:17:11.962Z,18.07
2018-12-17T11:19:40.770Z,17.00
2018-12-17T11:22:09.019Z,12.50
2018-12-17T11:24:37.489Z,14.97
2018-12-17T11:27:05.997Z,13.80
2018-12-17T11:29:42.781Z,15.43
2018-12-17T11:32:11.673Z,12.07
2018-12-17T11:34:40.310Z,13.70
2018-12-17T11:37:08.668Z,15.50
2018-12-17T11:39:37.666Z,12.37
2018-12-17T11:42:05.934Z,14.57
2018-12-17T11:44:34.214Z,13.43
2018-12-17T11:47:03.074Z,12.77
2018-12-17T11:49:31.775Z,15.70
2018-12-17T11:52:01.282Z,11.90
2018-12-17T11:54:30.088Z,13.67
2018-12-17T11:58:11.459Z,10.60
2018-12-17T12:00:45.984Z,13.00
2018-12-17T12:03:14.641Z,13.37
2018-12-17T12:05:43.423Z,15.13
2018-12-17T12:08:11.851Z,12.43
2018-12-17T12:10:40.279Z,12.73
2018-12-17T12:13:09.460Z,14.20
2018-12-17T12:15:38.265Z,13.77
2018-12-17T12:18:06.476Z,11.17
2018-12-17T12:20:34.795Z,14.67
2018-12-17T12:23:03.063Z,13.77
2018-12-17T12:25:31.373Z,11.27
2018-12-17T12:27:59.900Z,12.53
2018-12-17T12:30:28.309Z,11.83
2018-12-17T12:32:57.317Z,13.37
2018-12-17T12:35:25.674Z,14.33
2018-12-17T12:37:54.402Z,12.30
2018-12-17T12:40:23.372Z,13.07
2018-12-17T12:42:52.033Z,13.67
2018-12-17T12:45:20.376Z,14.67
2018-12-17T12:47:48.892Z,12.63
2018-12-17T12:50:17.160Z,13.10
2018-12-17T12:52:45.373Z,12.73
2018-12-17T12:55:13.548Z,12.77
2018-12-17T12:57:41.942Z,12.73
2018-12-17T13:00:13.820Z,15.60
2018-12-17T13:02:42.205Z,13.60
2018-12-17T13:05:11.071Z,12.53
2018-12-17T13:07:39.931Z,12.80
2018-12-17T13:10:10.756Z,13.77
2018-12-17T13:12:39.315Z,12.20
2018-12-17T13:15:09.181Z,14.23
2018-12-17T13:17:38.185Z,13.60
2018-12-17T13:20:08.762Z,13.60
2018-12-17T13:22:37.344Z,13.40
2018-12-17T13:25:09.249Z,12.90
2018-12-17T13:27:37.531Z,12.20
2018-12-17T13:30:08.574Z,12.50
2018-12-17T13:32:36.864Z,13.43
2018-12-17T13:35:06.871Z,12.70
2018-12-17T13:37:35.200Z,10.77
2018-12-17T13:40:05.270Z,15.83
2018-12-17T13:42:33.755Z,14.67
2018-12-17T13:45:02.303Z,12.93
2018-12-17T13:47:30.833Z,17.17
2018-12-17T13:50:03.765Z,16.67
2018-12-17T13:52:37.590Z,13.13
2018-12-17T13:55:16.082Z,14.20
2018-12-17T13:57:44.544Z,14.50
2018-12-17T14:00:13.528Z,15.20
2018-12-17T14:02:42.647Z,14.80
2018-12-17T14:05:11.092Z,13.87
2018-12-17T14:07:40.042Z,12.50
2018-12-17T14:10:15.677Z,120.73
2018-12-17T14:12:44.429Z,16.93
2018-12-17T14:15:13.368Z,17.63
2018-12-17T14:17:46.609Z,15.87
2018-12-17T14:20:20.938Z,16.70
2018-12-17T14:22:49.322Z,14.87
2018-12-17T14:25:17.738Z,14.13
2018-12-17T14:27:46.155Z,14.83
2018-12-17T14:30:14.489Z,15.23
2018-12-17T14:32:42.738Z,19.73
2018-12-17T14:35:11.519Z,15.97
2018-12-17T14:37:45.338Z,15.07
2018-12-17T14:40:13.996Z,16.27
2018-12-17T14:42:42.587Z,17.27
2018-12-17T14:45:10.938Z,18.67
2018-12-17T14:47:39.404Z,14.23
2018-12-17T14:50:07.937Z,18.37
2018-12-17T14:52:36.513Z,14.83
2018-12-17T14:55:06.446Z,15.23
2018-12-17T14:57:34.857Z,17.13
2018-12-17T15:00:03.728Z,16.07
2018-12-17T15:02:32.558Z,15.33
2018-12-17T15:05:00.846Z,16.27
2018-12-17T15:07:29.857Z,16.80
2018-12-17T15:09:58.837Z,16.03
2018-12-17T15:12:27.214Z,14.20
2018-12-17T15:14:56.303Z,17.70
2018-12-17T15:17:25.005Z,15.60
2018-12-17T15:19:54.223Z,14.13
2018-12-17T15:22:23.579Z,16.90
2018-12-17T15:24:52.473Z,13.97
2018-12-17T15:27:21.173Z,11.87
2018-12-17T15:29:49.711Z,12.77
2018-12-17T15:32:18.054Z,15.40
2018-12-17T15:34:46.627Z,14.60
2018-12-17T15:37:14.994Z,19.73
2018-12-17T15:39:43.597Z,16.70
2018-12-17T15:42:12.212Z,16.17
2018-12-17T15:44:41.088Z,18.77
2018-12-17T15:47:09.663Z,19.77
2018-12-17T15:49:38.200Z,20.70
2018-12-17T15:52:06.645Z,20.30
2018-12-17T15:54:34.923Z,17.27
2018-12-17T15:57:03.169Z,17.20
2018-12-17T15:59:31.701Z,13.80
2018-12-17T16:02:00.588Z,12.33
2018-12-17T16:04:28.853Z,11.27
2018-12-17T16:06:57.798Z,10.30
2018-12-17T16:09:26.161Z,7.77
2018-12-17T16:11:54.845Z,5.97
2018-12-17T16:14:35.902Z,9.50
2018-12-17T16:17:04.407Z,3.10
2018-12-17T16:19:33.046Z,4.37
2018-12-17T16:22:01.636Z,5.73
2018-12-17T16:24:29.999Z,6.23
2018-12-17T16:26:58.638Z,2.50
2018-12-17T16:29:27.151Z,4.97
2018-12-17T16:31:57.546Z,4.83
2018-12-17T16:34:29.075Z,3.37
2018-12-17T16:36:57.888Z,4.07
2018-12-17T16:39:26.276Z,3.93
2018-12-17T16:41:55.579Z,5.67
2018-12-17T16:44:23.942Z,4.77
2018-12-17T16:46:52.207Z,5.60
2018-12-17T16:49:20.521Z,2.90
2018-12-17T16:51:49.163Z,8.10
2018-12-17T16:54:17.421Z,3.80
2018-12-17T16:56:46.112Z,2.30
2018-12-17T16:59:14.376Z,2.30
2018-12-17T17:01:42.637Z,4.53
2018-12-17T17:04:11.345Z,3.27
2018-12-17T17:06:39.734Z,3.97
2018-12-17T17:09:08.143Z,3.53
2018-12-17T17:11:37.312Z,4.83
2018-12-17T17:14:06.002Z,3.00
2018-12-17T17:16:34.293Z,2.40
2018-12-17T17:19:03.082Z,3.77
2018-12-17T17:21:31.597Z,3.40
2018-12-17T17:23:59.835Z,2.00
2018-12-17T17:26:28.754Z,2.50
2018-12-17T17:28:57.219Z,3.83
2018-12-17T17:31:25.748Z,10.77
2018-12-17T17:33:54.629Z,7.00
2018-12-17T17:36:22.876Z,4.20
2018-12-17T17:38:51.473Z,6.10
2018-12-17T17:41:19.916Z,4.83
2018-12-17T17:43:48.870Z,5.73
2018-12-17T17:46:17.133Z,5.97
2018-12-17T17:48:45.496Z,6.50
2018-12-17T17:51:13.737Z,4.53
2018-12-17T17:53:42.076Z,6.43
2018-12-17T17:56:10.554Z,11.70
2018-12-17T17:58:39.149Z,7.87
2018-12-17T18:01:07.395Z,7.47
2018-12-17T18:03:39.845Z,8.23
2018-12-17T18:06:16.054Z,5.07
2018-12-17T18:08:40.038Z,13.57
2018-12-17T18:11:08.706Z,6.20
2018-12-17T18:13:39.108Z,23.07
2018-12-17T18:16:08.092Z,30.47
2018-12-17T18:18:37.167Z,13.17
2018-12-17T18:21:05.402Z,8.50
2018-12-17T18:23:33.679Z,4.57
2018-12-17T18:26:02.104Z,4.80
2018-12-17T18:28:30.550Z,8.73
2018-12-17T18:31:00.835Z,4.37
2018-12-17T18:33:29.551Z,4.17
2018-12-17T18:35:58.109Z,4.83
2018-12-17T18:38:26.696Z,3.13
2018-12-17T18:40:55.048Z,5.33
2018-12-17T18:43:23.260Z,3.57
2018-12-17T18:45:51.664Z,3.53
2018-12-17T18:48:20.232Z,4.10
2018-12-17T18:50:48.559Z,4.73
2018-12-17T18:53:16.953Z,4.57
2018-12-17T18:55:45.217Z,2.90
2018-12-17T18:58:13.597Z,4.67
2018-12-17T19:00:41.909Z,9.83
2018-12-17T19:03:11.633Z,9.60
2018-12-17T19:05:40.078Z,5.83
2018-12-17T19:08:10.275Z,7.27
2018-12-17T19:10:56.298Z,4.27
2018-12-17T19:13:24.934Z,5.63
2018-12-17T19:15:54.146Z,3.50
2018-12-17T19:18:22.971Z,6.00
2018-12-17T19:20:51.694Z,5.17
2018-12-17T19:23:20.703Z,5.83
2018-12-17T19:25:49.147Z,6.13
2018-12-17T19:28:17.951Z,4.07
2018-12-17T19:30:46.652Z,4.80
2018-12-17T19:33:15.584Z,4.90
2018-12-17T19:35:43.879Z,5.40
2018-12-17T19:38:13.415Z,7.00
2018-12-17T19:40:41.836Z,7.57
2018-12-17T19:43:10.227Z,5.43
2018-12-17T19:45:39.315Z,8.27
2018-12-17T19:48:07.445Z,4.43
2018-12-17T19:50:35.705Z,4.70
2018-12-17T19:53:04.071Z,3.73
2018-12-17T19:55:33.310Z,5.50
2018-12-17T19:58:01.517Z,6.17
2018-12-17T20:00:29.770Z,5.73
2018-12-17T20:02:58.366Z,3.40
2018-12-17T20:05:26.899Z,6.47
2018-12-17T20:07:55.555Z,5.13
2018-12-17T20:10:26.415Z,7.00
2018-12-17T20:12:55.115Z,5.17
2018-12-17T20:15:23.767Z,4.97
2018-12-17T20:17:52.224Z,7.67
2018-12-17T20:20:20.621Z,7.33
2018-12-17T20:22:50.540Z,6.80
2018-12-17T20:25:18.860Z,6.53
2018-12-17T20:27:47.093Z,5.37
2018-12-17T20:30:15.917Z,6.60
2018-12-17T20:32:44.405Z,6.00
2018-12-17T20:35:13.140Z,5.90
2018-12-17T20:37:41.855Z,4.73
2018-12-17T20:40:10.919Z,5.83
2018-12-17T20:42:39.174Z,4.97
2018-12-17T20:45:08.796Z,6.13
2018-12-17T20:47:37.078Z,5.87
2018-12-17T20:50:07.155Z,5.13
2018-12-17T20:52:42.209Z,7.10
2018-12-17T20:55:11.879Z,5.60
2018-12-17T20:57:40.415Z,6.10
2018-12-17T21:00:10.099Z,7.17
2018-12-17T21:02:41.699Z,6.60
2018-12-17T21:05:11.772Z,8.10
2018-12-17T21:07:42.655Z,6.57
2018-12-17T21:10:12.859Z,5.83
2018-12-17T21:12:43.349Z,5.57
2018-12-17T21:15:13.693Z,5.37
2018-12-17T21:17:42.677Z,6.03
2018-12-17T21:20:11.016Z,5.17
2018-12-17T21:22:39.921Z,5.03
2018-12-17T21:25:08.970Z,5.47
2018-12-17T21:27:37.830Z,6.43
2018-12-17T21:30:08.315Z,8.53
2018-12-17T21:32:36.697Z,5.63
2018-12-17T21:35:06.196Z,6.43
2018-12-17T21:37:34.864Z,5.10
2018-12-17T21:40:03.213Z,7.07
2018-12-17T21:42:31.669Z,5.40
2018-12-17T21:45:00.038Z,5.20
2018-12-17T21:47:28.519Z,6.23
2018-12-17T21:49:56.814Z,6.37
2018-12-17T21:52:25.774Z,6.47
2018-12-17T21:54:53.991Z,5.97
2018-12-17T21:57:22.215Z,6.13
2018-12-17T21:59:51.013Z,8.57
2018-12-17T22:02:21.098Z,6.73
2018-12-17T22:04:51.072Z,5.97
2018-12-17T22:07:19.944Z,5.00
2018-12-17T22:09:48.596Z,5.67
2018-12-17T22:12:17.186Z,6.80
2018-12-17T22:14:46.000Z,5.60
2018-12-17T22:17:15.227Z,4.47
2018-12-17T22:19:43.636Z,5.03
2018-12-17T22:22:12.699Z,6.57
2018-12-17T22:24:41.579Z,4.97
2018-12-17T22:27:10.538Z,5.93
2018-12-17T22:29:39.069Z,4.80
2018-12-17T22:32:08.515Z,5.27
2018-12-17T22:34:39.333Z,5.10
2018-12-17T22:37:07.576Z,4.70
2018-12-17T22:39:36.122Z,4.40
2018-12-17T22:42:05.014Z,5.10
2018-12-17T22:44:33.654Z,5.10
2018-12-17T22:47:01.997Z,5.77
2018-12-17T22:49:30.257Z,6.00
2018-12-17T22:51:58.468Z,5.97
2018-12-17T22:54:26.692Z,3.20
2018-12-17T22:56:54.868Z,4.13
2018-12-17T22:59:23.300Z,4.97
2018-12-17T23:01:54.309Z,4.70
2018-12-17T23:04:24.473Z,3.60
2018-12-17T23:06:54.112Z,3.73
2018-12-17T23:09:21.217Z,3.93
2018-12-17T23:12:08.755Z,4.93
2018-12-17T23:14:56.693Z,4.07
2018-12-17T23:17:39.897Z,6.77
2018-12-17T23:20:10.217Z,4.30
2018-12-17T23:22:40.508Z,7.20
2018-12-17T23:25:09.081Z,5.73
2018-12-17T23:27:37.423Z,5.47
2018-12-17T23:30:08.146Z,6.57
2018-12-17T23:32:36.850Z,4.30
2018-12-17T23:35:07.062Z,5.97
2018-12-17T23:37:35.985Z,6.57
2018-12-17T23:40:05.673Z,5.40
2018-12-17T23:42:34.364Z,7.37
2018-12-17T23:45:03.119Z,4.80
2018-12-17T23:47:31.875Z,6.37
2018-12-17T23:50:00.603Z,8.13
2018-12-17T23:52:29.468Z,7.17
2018-12-17T23:54:58.245Z,7.37
2018-12-17T23:57:26.644Z,6.67
2018-12-17T23:59:57.012Z,4.07
